x

Ilm2 - 5 Miles Se Of Wrightsville Beach, Nc (41038) Weather Station

4:08pm - Thu 28th Jul 2016 All times are EDT. -4 hours from GMT.

  • Wind
    18mph, 25mph gusts
  • Sea Temp 81°f
  • Air Temp 84°f
  • Sea Pressure 1013.2mb
  • Ilm2 - 5 Miles Se Of Wrightsville Beach, Nc
  • Ilm2 - 5 Miles Se Of Wrightsville Beach, Nc

More Historic Weather Station data

Upgrade to MSW Pro to gain access to the past 30 days of data for over 8000 Wavebouys and Weather Stations around the globe.

Join Pro

Comparision Forecast

View Surf forecast
   
Thu 07/28 4:08pm 18 25 mph 1013.2mb 81f 84f
3:08pm 16 22 mph 1013.5mb 81f 84f
2:08pm 13 18 mph 1014.2mb 82f 85f
1:08pm 11 13 mph 1014.9mb 82f 84f
12:08pm 4 9 mph 1015.3mb 82f 85f
11:08am 4 9 mph 1015.6mb 80f 83f
10:08am 4 9 mph 1015.8mb 80f 84f
9:08am 4 7 mph 1016mb 80f 83f
8:08am 9 13 mph 1015.3mb 80f 82f
7:08am 11 16 mph 1015mb 80f 81f
6:08am 9 11 mph 1014.9mb 80f 81f
5:08am 7 11 mph 1014.7mb 80f 81f
4:08am 7 9 mph 1014.9mb 80f 81f
3:08am 9 13 mph 1014.6mb 80f 81f
2:08am 11 13 mph 1014.6mb 80f 81f
1:08am 11 13 mph 1015.2mb 80f 81f
12:08am 9 11 mph 1015.5mb 80f 81f
Wed 07/27 11:08pm 9 11 mph 1015.6mb 80f 81f
10:08pm 9 11 mph 1015.8mb 80f 82f
9:08pm 11 13 mph 1015.2mb 80f 82f
8:08pm 13 20 mph 1014.3mb 80f 82f
7:08pm 16 22 mph 1014.4mb 81f 84f
6:08pm 16 20 mph 1014.4mb 81f 84f
5:08pm 18 25 mph 1014mb 81f 84f
4:08pm 18 25 mph 1014.8mb 81f 84f
3:08pm 13 20 mph 1015.2mb 81f 84f
2:08pm 13 18 mph 1015.7mb 81f 84f
1:08pm 11 16 mph 1016.2mb 81f 84f
12:08pm 7 9 mph 1016.7mb 80f 85f
11:08am 7 9 mph 1016.6mb 80f 84f
10:08am 7 11 mph 1016.6mb 80f 83f
9:08am 9 13 mph 1016.8mb 80f 82f
8:08am 9 13 mph 1016.5mb 80f 81f
7:08am 11 16 mph 1016.4mb 80f 81f
6:08am 11 16 mph 1016.4mb 80f 81f
5:08am 9 11 mph 1016.2mb 80f 81f
4:08am 9 13 mph 1016.2mb 80f 81f
3:08am 9 11 mph 1016.2mb 80f 81f
2:08am 9 11 mph 1016.3mb 80f 81f
1:08am 11 16 mph 1016.3mb 80f 82f
12:08am 11 16 mph 1016.9mb 80f 82f
Tue 07/26 11:08pm 9 13 mph 1016.5mb 80f 81f
10:08pm 11 16 mph 1016.6mb 80f 81f
9:08pm 11 16 mph 1016.2mb 80f 82f
8:08pm 13 18 mph 1016.2mb 81f 82f
7:08pm 13 18 mph 1015.7mb 81f 83f
6:08pm 16 20 mph 1015.5mb 81f 83f
5:08pm 18 22 mph 1015.5mb 81f 83f
4:08pm 18 22 mph 1015.9mb 81f 83f
3:08pm 18 22 mph 1016.5mb 81f 83f
2:08pm 13 20 mph 1017.2mb 81f 83f
1:08pm 16 20 mph 1017.6mb 81f 83f
12:08pm 16 20 mph 1018.1mb 81f 82f
11:08am 9 11 mph 1018.5mb 81f 83f
10:08am 11 16 mph 1018.4mb 81f 82f
9:08am 9 13 mph 1018.6mb 81f 81f
8:08am 9 13 mph 1018.6mb 81f 81f
7:08am 9 13 mph 1018.4mb 81f 80f
6:08am 9 11 mph 1018.1mb 81f 80f
5:08am 9 11 mph 1017.5mb 81f 81f
4:08am 11 13 mph 1017.4mb 81f 81f
3:08am 11 16 mph 1017.5mb 81f 82f
2:08am 13 16 mph 1017.9mb 82f 82f
1:08am 11 16 mph 1018.2mb 82f 82f
12:08am 13 20 mph 1018.4mb 82f 82f
Mon 07/25 11:08pm 13 20 mph 1018.1mb 82f 83f
10:08pm 16 20 mph 1018.1mb 83f 83f
9:08pm 16 20 mph 1017.7mb 83f 83f
8:08pm 16 20 mph 1017.3mb 83f 83f
7:08pm 16 20 mph 1017mb 83f 85f
6:08pm 18 22 mph 1016.9mb 84f 85f
5:08pm 16 20 mph 1017.3mb 84f 85f
4:08pm 16 20 mph 1017.6mb 84f 85f
3:08pm 18 20 mph 1018.2mb 84f 84f
2:08pm 16 20 mph 1018.6mb 84f 85f
1:08pm 16 20 mph 1019mb 84f 84f
11:08am 11 16 mph 1019.4mb 84f 84f
10:08am 9 11 mph 1019.5mb 83f 84f
9:08am 7 9 mph 1019.9mb 83f 82f
8:08am 7 11 mph 1019.7mb 83f 82f
7:08am 7 9 mph 1019.5mb 83f 82f
6:08am 7 9 mph 1019.3mb 84f 82f
5:08am 4 9 mph 1018.4mb 84f 82f
4:08am 9 13 mph 1018.1mb 84f 83f
3:08am 11 18 mph 1018.4mb 84f 83f
2:08am 11 16 mph 1018.4mb 84f 83f
1:08am 13 16 mph 1018.5mb 84f 83f
12:08am 13 18 mph 1018.6mb 84f 84f
Sun 07/24 11:08pm 16 20 mph 1018.5mb 84f 84f
10:08pm 13 18 mph 1018.2mb 84f 84f
9:08pm 13 18 mph 1017.9mb 84f 84f